ADDS METAR Data INFO
IDs: Format: Raw Decoded Include TAF

Data at: 0838 UTC 21 Oct 2017

PAZK 210756Z AUTO 36005KT 8SM -SN OVC021 M12/M14 A2918 RMK AO2 SLP954 P0000 T11221144 FZRANO
PAZK 210656Z AUTO 01006KT 9SM -SN OVC019 M12/M14 A2918 RMK AO2 SLP953 P0000 T11221144 FZRANO
PAZK 210556Z AUTO 01005KT 9SM -SN OVC019 M12/M15 A2917 RMK AO2 SLP950 P0000 60000 T11221150 11089 21150 53006 FZRANO
PAZK 210456Z AUTO 36006KT 9SM -SN OVC021 M12/M15 A2916 RMK AO2 SNB0358 SLP949 P0000 T11221150 FZRANO
PAZK 210429Z AUTO 35005KT 9SM -SN BKN021 M13/M15 A2915 RMK AO2 SNB0358 P0000 FZRANO
PAZK 210356Z AUTO 35005KT 10SM FEW022 M14/M16 A2915 RMK AO2 SLP949 T11391161 FZRANO
PAZK 210256Z AUTO 02004KT 10SM OVC022 M13/M16 A2914 RMK AO2 SLP943 T11281156 53008 FZRANO
PAZK 210156Z AUTO 35004KT 10SM BKN024 M11/M15 A2912 RMK AO2 SLP936 T11111150 FZRANO
PAZK 210056Z AUTO 01006KT 10SM BKN024 M10/M14 A2911 RMK AO2 SLP931 T11001144 FZRANO
PAZK 202356Z AUTO 36004KT 10SM OVC024 M08/M14 A2911 RMK AO2 SLP926 60000 T10831144 11050 21117 53002 FZRANO
PAZK 202256Z AUTO VRB04KT 10SM OVC022 M07/M13 A2911 RMK AO2 SNB21E45 SLP923 P0000 T10671133 FZRANO
PAZK 202156Z AUTO 00000KT 10SM OVC028 M06/M13 A2910 RMK AO2 SNE11 SLP921 P0000 T10561128 FZRANO
PAZK 202056Z AUTO 02004KT 9SM -SN BKN032 M09/M13 A2910 RMK AO2 SNB45 SLP924 P0000 60000 T10891133 53007 FZRANO
PAZK 201956Z AUTO 00000KT 9SM OVC032 M10/M13 A2910 RMK AO2 SNE55 SLP923 P0000 T11001133 FZRANO
PAZK 201856Z AUTO 00000KT 9SM -SN OVC032 M11/M14 A2908 RMK AO2 SLP921 P0000 T11111139 FZRANO
PAZK 201756Z AUTO 07003KT 8SM -SN OVC030 M12/M14 A2908 RMK AO2 SLP919 P0000 60000 T11171144 11117 21128 53007 FZRANO
PAZK 201556Z AUTO 00000KT 9SM -SN OVC033 M13/M14 A2906 RMK AO2 SLP913 P0000 T11281144 FZRANO
PAZK 201456Z AUTO 00000KT 9SM -SN OVC037 M13/M14 A2906 RMK AO2 SLP911 P0000 60000 T11281144 52001 FZRANO
PAZK 201356Z AUTO 09003KT 9SM -SN OVC037 M12/M14 A2906 RMK AO2 SLP911 P0000 T11221144 FZRANO
PAZK 201256Z AUTO 08004KT 9SM -SN OVC039 M12/M14 A2905 RMK AO2 SLP908 P0000 T11221144 FZRANO
PAZK 201156Z AUTO 08003KT 9SM -SN OVC043 M12/M14 A2905 RMK AO2 SLP908 P0000 60000 T11221144 11111 21122 51001 FZRANO
PAZK 201056Z AUTO 05004KT 9SM -SN OVC037 M12/M15 A2905 RMK AO2 SLP908 P0000 T11221150 FZRANO
PAZK 200956Z AUTO 10003KT 9SM -SN OVC039 M12/M15 A2906 RMK AO2 SLP909 P0000 T11221150 FZRANO
PAZK 200856Z AUTO 00000KT 9SM -SN SCT032 OVC040 M12/M15 A2905 RMK AO2 SLP907 P0000 60000 T11171150 410891117 56001 FZRANO
PAZK 200756Z AUTO 03003KT 9SM -SN OVC034 M12/M16 A2905 RMK AO2 SNE0658B40 SLP905 P0000 T11171156 FZRANO
PAZK 200656Z AUTO 03004KT 9SM -SN OVC038 M11/M16 A2905 RMK AO2 SNB37 SLP904 P0000 T11111156 FZRANO
PAZK 200556Z AUTO 35006KT 10SM OVC047 M11/M16 A2905 RMK AO2 SLP908 60000 T11111156 11089 21111 58000 FZRANO
PAZK 200456Z AUTO 03003KT 10SM OVC047 M11/M15 A2905 RMK AO2 SLP908 T11111150 FZRANO
PAZK 200256Z AUTO 35005KT 10SM BKN047 OVC060 M10/M15 A2905 RMK AO2 SNE31 SLP906 P0000 60000 T11001150 50000 FZRANO
PAZK 200156Z AUTO 35005KT 9SM -SN OVC045 M10/M14 A2905 RMK AO2 SNB19 SLP907 P0000 T11001144 FZRANO
PAZK 200056Z AUTO 34007KT 10SM OVC047 M09/M14 A2905 RMK AO2 SLP905 T10941144 FZRANO
PAZK 192256Z AUTO 33008KT 10SM BKN047 OVC060 M09/M16 A2906 RMK AO2 SLP905 T10891156 FZRANO
PAZK 192156Z AUTO 34007KT 10SM OVC049 M09/M16 A2906 RMK AO2 SLP906 T10891156 FZRANO
PAZK 192056Z AUTO 33006KT 10SM OVC049 M09/M16 A2906 RMK AO2 SLP907 T10941161 58001 FZRANO